Time;durP1;ratioP1;P1;durP2;ratioP2;P2;SDS_P1;SDS_P2;PMS_P1;PMS_P2;Temp;Humidity;BMP_temperature;BMP_pressure;BME280_temperature;BME280_humidity;BME280_pressure;Samples;Min_cycle;Max_cycle;Signal;HPM_P1;HPM_P2
2021/08/12 00:01:21;;;;;;;6.50;1.87;;;;;;;13.36;69.92;100811.40;125624;1097;22951;-75
2021/08/12 00:03:53;;;;;;;9.05;2.20;;;;;;;13.34;70.07;100819.53;125651;1096;22964;-77
2021/08/12 00:06:25;;;;;;;9.50;2.60;;;;;;;13.31;70.39;100814.88;125671;1096;22867;-75
2021/08/12 00:08:57;;;;;;;6.90;1.90;;;;;;;13.30;70.35;100816.14;125639;1096;22856;-75
2021/08/12 00:11:28;;;;;;;8.20;2.30;;;;;;;13.26;70.72;100817.59;125667;1096;27308;-77
2021/08/12 00:14:00;;;;;;;9.65;2.20;;;;;;;13.22;70.43;100826.17;125682;1096;22800;-76
2021/08/12 00:16:32;;;;;;;7.65;2.20;;;;;;;13.21;70.92;100832.27;125668;1096;22884;-76
2021/08/12 00:19:04;;;;;;;9.80;2.65;;;;;;;13.18;70.86;100827.64;125824;1096;22923;-75
2021/08/12 00:21:35;;;;;;;7.90;2.40;;;;;;;13.16;70.73;100833.72;125739;1096;22858;-75
2021/08/12 00:24:08;;;;;;;10.85;1.90;;;;;;;13.13;70.31;100826.29;125680;1096;22816;-76
2021/08/12 00:26:40;;;;;;;7.05;2.05;;;;;;;13.10;71.02;100821.63;125739;1096;23395;-75
2021/08/12 00:29:13;;;;;;;7.35;2.10;;;;;;;13.08;71.01;100826.20;125900;1094;22800;-75
2021/08/12 00:31:45;;;;;;;8.73;2.00;;;;;;;13.05;70.95;100833.53;125711;1095;22873;-75
2021/08/12 00:34:16;;;;;;;7.40;1.80;;;;;;;13.03;70.78;100838.81;125666;1096;26005;-75
2021/08/12 00:36:49;;;;;;;8.65;2.05;;;;;;;13.00;70.61;100840.55;125671;1095;22902;-75
2021/08/12 00:39:22;;;;;;;8.80;1.90;;;;;;;12.96;71.00;100837.16;125825;1096;22778;-76
2021/08/12 00:41:54;;;;;;;6.90;1.85;;;;;;;12.93;70.86;100852.13;125665;1096;22783;-76
2021/08/12 00:44:26;;;;;;;8.10;2.00;;;;;;;12.90;71.22;100841.11;125654;1096;22816;-75
2021/08/12 00:47:05;;;;;;;;;;;;;;;12.87;70.95;100844.86;125667;1096;22858;-76
2021/08/12 00:49:40;;;;;;;7.88;1.90;;;;;;;12.84;71.32;100843.81;125741;1096;21518;-76
2021/08/12 00:52:12;;;;;;;9.70;2.10;;;;;;;12.80;71.80;100839.64;125644;1096;22828;-76
2021/08/12 00:54:43;;;;;;;12.50;2.70;;;;;;;12.78;71.27;100845.73;125704;1096;27268;-76
2021/08/12 00:57:16;;;;;;;7.45;2.10;;;;;;;12.77;71.45;100849.00;125759;1096;23616;-76
2021/08/12 00:59:50;;;;;;;8.70;2.30;;;;;;;12.75;71.30;100855.09;125707;1096;22870;-76
2021/08/12 01:02:21;;;;;;;8.48;2.28;;;;;;;12.75;71.70;100849.48;125700;1096;22860;-77
2021/08/12 01:04:55;;;;;;;10.45;2.35;;;;;;;12.75;71.76;100857.89;125673;1095;22820;-75
2021/08/12 01:07:34;;;;;;;11.30;2.50;;;;;;;12.74;71.89;100861.95;125766;1095;22874;-75
2021/08/12 01:10:15;;;;;;;10.00;2.50;;;;;;;12.72;71.99;100858.86;125791;1096;24455;-75
2021/08/12 01:12:58;;;;;;;10.63;3.10;;;;;;;12.69;71.71;100857.00;125787;1096;22977;-75
2021/08/12 01:15:35;;;;;;;10.00;2.90;;;;;;;12.71;72.19;100856.52;125953;1096;22892;-76
2021/08/12 01:18:13;;;;;;;10.80;2.70;;;;;;;12.67;72.33;100856.71;125782;1096;27505;-76
2021/08/12 01:21:07;;;;;;;9.97;3.13;;;;;;;12.65;72.11;100855.63;125594;1096;23449;-76
2021/08/12 01:23:40;;;;;;;11.00;2.63;;;;;;;12.63;72.67;100858.92;125668;1096;26002;-75
2021/08/12 01:26:16;;;;;;;11.55;2.95;;;;;;;12.63;72.40;100858.14;125782;1096;27400;-75
2021/08/12 01:28:49;;;;;;;12.00;3.75;;;;;;;12.60;72.42;100854.27;125793;1096;25999;-76
2021/08/12 01:31:37;;;;;;;12.15;3.10;;;;;;;12.57;72.29;100857.25;125828;1096;22776;-76
2021/08/12 01:34:16;;;;;;;13.80;3.40;;;;;;;12.54;72.49;100856.17;125774;1096;25967;-75
2021/08/12 01:36:53;;;;;;;9.08;2.40;;;;;;;12.52;72.25;100855.13;125628;1097;24598;-76
2021/08/12 01:39:27;;;;;;;11.60;2.75;;;;;;;12.48;72.76;100872.09;125677;1096;25887;-76
2021/08/12 01:42:00;;;;;;;10.90;3.50;;;;;;;12.44;73.20;100865.11;125766;1096;22941;-76
2021/08/12 01:44:33;;;;;;;12.00;2.90;;;;;;;12.46;73.49;100860.59;125765;1095;22867;-76
2021/08/12 01:47:05;;;;;;;13.00;3.17;;;;;;;12.46;73.09;100854.99;125847;1096;26331;-75
2021/08/12 01:49:39;;;;;;;10.05;2.80;;;;;;;12.45;73.43;100861.86;125704;1096;25922;-76
2021/08/12 01:52:11;;;;;;;9.60;2.60;;;;;;;12.43;73.12;100863.58;125657;1096;22831;-76
2021/08/12 01:54:44;;;;;;;12.33;2.80;;;;;;;12.42;73.01;100867.62;125625;1096;27760;-77
2021/08/12 01:57:16;;;;;;;6.85;2.00;;;;;;;12.41;73.00;100868.88;125841;1095;22789;-76
2021/08/12 01:59:50;;;;;;;8.17;2.27;;;;;;;12.37;73.38;100869.08;125746;1095;22804;-75
2021/08/12 02:02:21;;;;;;;14.00;3.40;;;;;;;12.33;73.48;100868.48;125752;1096;23411;-75
2021/08/12 02:04:55;;;;;;;11.08;2.93;;;;;;;12.33;73.65;100873.30;125773;1096;22786;-77
2021/08/12 02:07:27;;;;;;;11.25;3.00;;;;;;;12.31;73.00;100867.40;125726;1096;23643;-76
2021/08/12 02:10:01;;;;;;;12.40;2.80;;;;;;;12.28;73.41;100880.31;125629;1096;22948;-75
2021/08/12 02:12:32;;;;;;;9.60;2.57;;;;;;;12.25;73.50;100872.86;125787;1096;26382;-76
2021/08/12 02:15:05;;;;;;;12.00;2.27;;;;;;;12.24;73.10;100874.13;125727;1096;22809;-75
2021/08/12 02:17:37;;;;;;;8.30;2.55;;;;;;;12.23;73.29;100866.95;125654;1096;22758;-75
2021/08/12 02:20:12;;;;;;;10.65;2.85;;;;;;;12.24;73.40;100878.94;125660;1096;22799;-76
2021/08/12 02:22:48;;;;;;;9.60;2.70;;;;;;;12.21;73.12;100877.11;125766;1096;22861;-76
2021/08/12 02:25:29;;;;;;;11.50;2.80;;;;;;;12.17;73.50;100866.84;125698;1095;22914;-76
2021/08/12 02:28:04;;;;;;;11.30;3.00;;;;;;;12.14;73.55;100870.61;125693;1097;25970;-76
2021/08/12 02:30:38;;;;;;;12.10;2.95;;;;;;;12.11;73.73;100870.77;125880;1096;22873;-76
2021/08/12 02:33:14;;;;;;;10.60;2.70;;;;;;;12.06;73.54;100872.18;125642;1096;23549;-76
2021/08/12 02:35:47;;;;;;;10.85;2.70;;;;;;;12.03;73.63;100867.55;125780;1096;22797;-75
2021/08/12 02:38:20;;;;;;;7.45;2.30;;;;;;;11.99;73.50;100852.95;125762;1096;22833;-77
2021/08/12 02:40:52;;;;;;;9.40;2.30;;;;;;;11.95;73.41;100863.55;125747;1096;27681;-76
2021/08/12 02:43:24;;;;;;;11.87;2.47;;;;;;;11.90;73.25;100858.58;125792;1096;22807;-77
2021/08/12 02:45:58;;;;;;;9.33;2.50;;;;;;;11.87;73.62;100870.73;125790;1096;22868;-76
2021/08/12 02:48:34;;;;;;;11.40;2.47;;;;;;;11.85;73.71;100862.05;125848;1095;22823;-76
2021/08/12 02:51:07;;;;;;;9.73;3.23;;;;;;;11.84;74.04;100871.67;125727;1097;22798;-77
2021/08/12 02:53:39;;;;;;;10.70;3.00;;;;;;;11.84;73.93;100871.67;125654;1096;22798;-76
2021/08/12 02:56:12;;;;;;;9.27;2.27;;;;;;;11.81;73.74;100869.83;125727;1095;23328;-75
2021/08/12 02:58:45;;;;;;;10.90;2.45;;;;;;;11.78;74.24;100870.77;125748;1096;23225;-75
2021/08/12 03:01:18;;;;;;;10.50;3.00;;;;;;;11.77;74.03;100869.20;125750;1096;22786;-77
2021/08/12 03:03:52;;;;;;;10.00;2.40;;;;;;;11.73;73.92;100876.98;125687;1096;22786;-77
2021/08/12 03:06:25;;;;;;;11.55;2.25;;;;;;;11.69;73.92;100881.22;125671;1096;25887;-75
2021/08/12 03:09:00;;;;;;;8.80;2.50;;;;;;;11.65;73.93;100881.34;125812;1096;24466;-75
2021/08/12 03:11:33;;;;;;;10.40;2.45;;;;;;;11.62;74.16;100879.50;125687;1096;23223;-75
2021/08/12 03:14:05;;;;;;;10.73;2.60;;;;;;;11.59;74.39;100879.64;125644;1096;22800;-75
2021/08/12 03:16:38;;;;;;;13.20;2.80;;;;;;;11.56;73.73;100875.01;125730;1096;22902;-75
2021/08/12 03:19:10;;;;;;;8.05;2.50;;;;;;;11.52;73.86;100886.36;125737;1096;22907;-75
2021/08/12 03:22:00;;;;;;;8.87;2.67;;;;;;;11.48;73.95;100882.96;125760;1095;23028;-77
2021/08/12 03:24:34;;;;;;;11.23;2.23;;;;;;;11.45;74.29;100875.50;125646;1097;22805;-77
2021/08/12 03:27:08;;;;;;;10.10;2.85;;;;;;;11.44;73.97;100878.77;125931;1096;26328;-77
2021/08/12 03:29:39;;;;;;;13.50;2.70;;;;;;;11.43;73.90;100882.80;125741;1096;22781;-75
2021/08/12 03:32:12;;;;;;;9.70;2.30;;;;;;;11.42;74.35;100882.05;125621;1096;22841;-77
2021/08/12 03:34:44;;;;;;;10.43;2.70;;;;;;;11.42;74.22;100882.05;125649;1096;22957;-75
2021/08/12 03:37:16;;;;;;;11.53;2.63;;;;;;;11.43;74.15;100874.41;125706;1096;22815;-76
2021/08/12 03:39:48;;;;;;;13.07;3.37;;;;;;;11.41;74.08;100877.69;125624;1096;22823;-76
2021/08/12 03:42:19;;;;;;;13.15;3.20;;;;;;;11.39;74.32;100878.16;125627;1096;22788;-77
2021/08/12 03:44:51;;;;;;;12.15;2.85;;;;;;;11.37;74.68;100882.66;125670;1096;23353;-76
2021/08/12 03:47:23;;;;;;;8.80;2.23;;;;;;;11.36;74.80;100890.27;125669;1095;22877;-76
2021/08/12 03:49:55;;;;;;;10.80;2.90;;;;;;;11.35;74.63;100890.75;125739;1096;22806;-75
2021/08/12 03:52:26;;;;;;;10.03;2.60;;;;;;;11.34;74.73;100892.76;125617;1096;23542;-75
2021/08/12 03:54:57;;;;;;;14.70;3.03;;;;;;;11.34;74.85;100884.38;125626;1096;22932;-77
2021/08/12 03:57:28;;;;;;;15.75;3.90;;;;;;;11.34;74.65;100883.59;125632;1096;22764;-77
2021/08/12 04:00:01;;;;;;;16.37;2.70;;;;;;;11.35;74.82;100885.16;125623;1096;22803;-75
2021/08/12 04:02:32;;;;;;;11.20;2.70;;;;;;;11.36;74.76;100890.27;125648;1096;24502;-76
2021/08/12 04:05:03;;;;;;;16.65;2.80;;;;;;;11.37;75.08;100888.26;125641;1095;26302;-75
2021/08/12 04:07:34;;;;;;;14.03;2.83;;;;;;;11.39;75.17;100888.56;125626;1096;22848;-75
2021/08/12 04:10:07;;;;;;;12.60;3.25;;;;;;;11.41;75.17;100891.66;125667;1096;24508;-75
2021/08/12 04:12:38;;;;;;;9.50;2.80;;;;;;;11.43;75.34;100891.97;125660;1096;22805;-75
2021/08/12 04:15:12;;;;;;;13.50;2.80;;;;;;;11.44;75.22;100887.94;125739;1096;23225;-74
2021/08/12 04:17:43;;;;;;;14.30;3.53;;;;;;;11.46;75.59;100899.43;125818;1097;22986;-75
2021/08/12 04:20:15;;;;;;;11.65;3.10;;;;;;;11.46;75.64;100893.84;125778;1096;24508;-76
2021/08/12 04:22:47;;;;;;;11.37;3.53;;;;;;;11.48;75.99;100894.14;125683;1096;23065;-77
2021/08/12 04:25:18;;;;;;;20.30;4.35;;;;;;;11.50;76.06;100894.45;125765;1096;23218;-76
2021/08/12 04:27:50;;;;;;;13.70;3.83;;;;;;;11.55;76.02;100891.00;125601;1096;24244;-76
2021/08/12 04:30:23;;;;;;;16.90;4.80;;;;;;;11.59;76.08;100885.23;125703;1096;27223;-75
2021/08/12 04:32:55;;;;;;;14.00;3.67;;;;;;;11.63;76.39;100892.22;125755;1096;27310;-76
2021/08/12 04:35:26;;;;;;;11.37;3.23;;;;;;;11.67;76.52;100895.66;125762;1095;22892;-76
2021/08/12 04:37:57;;;;;;;14.10;3.67;;;;;;;11.73;76.53;100899.36;125745;1096;22800;-76
2021/08/12 04:40:30;;;;;;;15.80;3.93;;;;;;;11.78;76.78;100900.75;125683;1096;28867;-76
2021/08/12 04:43:04;;;;;;;12.45;4.10;;;;;;;11.84;76.55;100910.05;125628;1096;26273;-77
2021/08/12 04:45:36;;;;;;;14.33;3.97;;;;;;;11.91;77.01;100904.13;125798;1095;22879;-76
2021/08/12 04:48:12;;;;;;;14.70;3.80;;;;;;;11.98;76.65;100915.00;125717;1096;22878;-77
2021/08/12 04:50:44;;;;;;;18.23;3.70;;;;;;;12.06;76.94;100893.81;125624;1095;22800;-75
2021/08/12 04:53:15;;;;;;;15.23;3.67;;;;;;;12.13;76.99;100899.83;125658;1096;22965;-76
2021/08/12 04:55:46;;;;;;;15.40;3.80;;;;;;;12.21;77.17;100900.25;125664;1096;22838;-77
2021/08/12 04:58:18;;;;;;;12.13;4.60;;;;;;;12.29;77.15;100898.65;125655;1096;22863;-75
2021/08/12 05:00:50;;;;;;;11.75;3.80;;;;;;;12.37;77.50;100899.88;125652;1096;22820;-77
2021/08/12 05:03:22;;;;;;;16.55;4.60;;;;;;;12.47;77.27;100897.78;125757;1096;22948;-76
2021/08/12 05:06:03;;;;;;;13.70;5.20;;;;;;;12.55;77.24;100894.15;125688;1096;22877;-76
2021/08/12 05:08:34;;;;;;;21.63;6.47;;;;;;;12.66;77.35;100893.61;125731;1096;22789;-75
2021/08/12 05:11:10;;;;;;;18.50;5.40;;;;;;;12.76;77.17;100897.89;125662;1096;22785;-75
2021/08/12 05:13:41;;;;;;;21.05;7.70;;;;;;;12.86;77.76;100891.74;125785;1096;22951;-75
2021/08/12 05:16:14;;;;;;;20.10;8.23;;;;;;;12.96;77.83;100903.64;125765;1096;22777;-77
2021/08/12 05:18:46;;;;;;;23.20;8.10;;;;;;;13.07;77.93;100908.73;125655;1096;22871;-77
2021/08/12 05:21:18;;;;;;;25.15;8.65;;;;;;;13.16;78.13;100908.66;125725;1096;22784;-76
2021/08/12 05:23:50;;;;;;;18.40;7.70;;;;;;;13.27;78.61;100911.66;125647;1096;22754;-77
2021/08/12 05:26:21;;;;;;;19.87;7.33;;;;;;;13.37;78.55;100915.92;125691;1096;22813;-76
2021/08/12 05:28:53;;;;;;;15.83;7.23;;;;;;;13.47;78.27;100926.56;125752;1095;22857;-77
2021/08/12 05:31:24;;;;;;;20.87;7.40;;;;;;;13.58;78.60;100917.58;125775;1096;22861;-77
2021/08/12 05:33:56;;;;;;;19.93;7.10;;;;;;;13.69;78.33;100921.37;125651;1096;22797;-76
2021/08/12 05:36:29;;;;;;;22.50;7.80;;;;;;;13.83;79.02;100931.03;125764;1096;22786;-80
2021/08/12 05:39:00;;;;;;;14.73;6.83;;;;;;;13.97;78.72;100932.26;125750;1096;22807;-77
2021/08/12 05:41:32;;;;;;;18.90;7.47;;;;;;;14.10;78.88;100933.52;125823;1096;22853;-78
2021/08/12 05:44:06;;;;;;;23.00;7.90;;;;;;;14.22;78.59;100935.23;125723;1095;26060;-78
2021/08/12 05:46:39;;;;;;;20.35;7.50;;;;;;;14.34;79.18;100936.19;125745;1096;22755;-78
2021/08/12 05:49:13;;;;;;;16.25;7.70;;;;;;;14.48;78.94;100944.58;125781;1096;27220;-79
2021/08/12 05:51:45;;;;;;;18.00;7.45;;;;;;;14.61;78.94;100941.44;125730;1095;22814;-78
2021/08/12 05:54:17;;;;;;;20.15;8.15;;;;;;;14.74;78.85;100941.88;125686;1096;27766;-78
2021/08/12 05:56:48;;;;;;;20.65;6.95;;;;;;;14.82;78.17;100936.59;125681;1096;26267;-78
2021/08/12 05:59:20;;;;;;;20.15;7.30;;;;;;;14.92;78.21;100943.65;125627;1096;22841;-77
2021/08/12 06:01:51;;;;;;;20.75;6.95;;;;;;;15.04;78.56;100945.33;125701;1096;23403;-78
2021/08/12 06:04:22;;;;;;;20.70;7.10;;;;;;;15.12;77.90;100950.03;125666;1097;22880;-79
2021/08/12 06:06:55;;;;;;;20.90;8.15;;;;;;;15.21;77.92;100944.24;125709;1096;22829;-79
2021/08/12 06:09:28;;;;;;;21.70;8.40;;;;;;;15.36;77.92;100944.92;125808;1096;27540;-78
2021/08/12 06:11:59;;;;;;;19.25;7.00;;;;;;;15.48;78.12;100945.09;125750;1096;27384;-78
2021/08/12 06:14:31;;;;;;;26.95;7.55;;;;;;;15.59;77.66;100940.33;125689;1096;22912;-78
2021/08/12 06:17:02;;;;;;;28.77;7.90;;;;;;;15.69;77.41;100940.92;125735;1096;22861;-79
2021/08/12 06:19:37;;;;;;;26.65;7.60;;;;;;;15.81;77.19;100942.56;125808;1096;22789;-78
2021/08/12 06:22:08;;;;;;;24.65;6.55;;;;;;;15.95;77.42;100939.62;125752;1096;22804;-81
2021/08/12 06:24:40;;;;;;;21.40;6.30;;;;;;;16.08;77.25;100936.39;125659;1095;22928;-78
2021/08/12 06:27:12;;;;;;;15.85;6.50;;;;;;;16.18;77.28;100941.34;125741;1095;25891;-79
2021/08/12 06:29:45;;;;;;;18.27;5.60;;;;;;;16.33;76.81;100941.19;125648;1096;22853;-79
2021/08/12 06:32:17;;;;;;;20.25;6.15;;;;;;;16.47;76.26;100940.25;125798;1096;22817;-79
2021/08/12 06:34:48;;;;;;;22.27;6.27;;;;;;;16.60;76.04;100949.08;125630;1096;26398;-80
2021/08/12 06:37:19;;;;;;;21.55;6.45;;;;;;;16.68;75.97;100950.15;125692;1096;24595;-78
2021/08/12 06:39:52;;;;;;;23.75;5.70;;;;;;;16.77;75.84;100946.35;125680;1096;22786;-79
2021/08/12 06:42:24;;;;;;;14.75;4.50;;;;;;;16.87;75.39;100951.28;125901;1096;22880;-78
2021/08/12 06:44:59;;;;;;;18.40;5.13;;;;;;;16.94;75.33;100944.39;125766;1096;27215;-79
2021/08/12 06:47:41;;;;;;;16.15;4.90;;;;;;;17.05;75.17;100950.05;125696;1096;22752;-78
2021/08/12 06:50:14;;;;;;;18.55;5.35;;;;;;;17.14;74.74;100957.53;125647;1096;25998;-80
2021/08/12 06:52:47;;;;;;;16.00;4.95;;;;;;;17.26;75.05;100956.28;125618;1096;22885;-79
2021/08/12 06:55:20;;;;;;;13.70;4.90;;;;;;;17.34;74.26;100957.36;125767;1096;23478;-81
2021/08/12 06:57:52;;;;;;;13.05;4.40;;;;;;;17.43;74.27;100952.25;125692;1096;27692;-79
2021/08/12 07:00:26;;;;;;;17.70;5.00;;;;;;;17.51;73.94;100952.54;125773;1096;22803;-79
2021/08/12 07:02:59;;;;;;;25.35;6.00;;;;;;;17.62;73.67;100958.22;125646;1096;23446;-81
2021/08/12 07:05:30;;;;;;;20.05;4.70;;;;;;;17.72;73.35;100959.52;125714;1095;26656;-79
2021/08/12 07:08:05;;;;;;;16.10;4.85;;;;;;;17.78;73.01;100958.23;125709;1096;27773;-79
2021/08/12 07:10:40;;;;;;;25.10;5.45;;;;;;;17.88;73.08;100949.53;125835;1095;22975;-79
2021/08/12 07:13:12;;;;;;;18.05;3.40;;;;;;;18.02;72.58;100952.07;125795;1095;27192;-79
2021/08/12 07:15:44;;;;;;;13.40;3.40;;;;;;;18.18;72.18;100956.20;125634;1096;27328;-79
2021/08/12 07:18:15;;;;;;;13.50;2.75;;;;;;;18.27;71.95;100945.38;125675;1095;23418;-79
2021/08/12 07:20:48;;;;;;;10.75;2.15;;;;;;;18.36;71.48;100959.26;125674;1096;22925;-79
2021/08/12 07:23:19;;;;;;;8.90;2.30;;;;;;;18.46;71.80;100949.25;125685;1096;22803;-79
2021/08/12 07:25:50;;;;;;;11.23;2.40;;;;;;;18.58;71.01;100953.59;125661;1096;22780;-79
2021/08/12 07:28:24;;;;;;;10.65;2.95;;;;;;;18.70;71.07;100957.17;125684;1095;26763;-79
2021/08/12 07:30:55;;;;;;;9.00;1.95;;;;;;;18.82;70.57;100961.50;125664;1096;22776;-79
2021/08/12 07:33:26;;;;;;;12.40;3.05;;;;;;;18.93;70.07;100955.79;125661;1095;24344;-79
2021/08/12 07:35:59;;;;;;;9.10;1.95;;;;;;;19.04;69.87;100964.25;125714;1096;22807;-79
2021/08/12 07:38:33;;;;;;;10.35;1.55;;;;;;;19.19;68.69;100964.70;125649;1096;24461;-79
2021/08/12 07:41:08;;;;;;;6.55;1.50;;;;;;;19.33;69.26;100966.46;125677;1096;22883;-79
2021/08/12 07:43:41;;;;;;;8.90;1.83;;;;;;;19.44;68.31;100968.47;125705;1096;22860;-79
2021/08/12 07:46:12;;;;;;;6.58;1.45;;;;;;;19.58;67.93;100970.18;125739;1096;22861;-79
2021/08/12 07:48:44;;;;;;;4.95;1.50;;;;;;;19.70;67.58;100973.73;125650;1096;25967;-79
2021/08/12 07:51:16;;;;;;;6.80;1.70;;;;;;;19.79;66.98;100976.22;125676;1096;27227;-79
2021/08/12 07:53:47;;;;;;;8.67;1.70;;;;;;;19.87;65.83;100971.53;125647;1096;22904;-79
2021/08/12 07:56:20;;;;;;;4.93;1.40;;;;;;;19.92;65.81;100965.84;125684;1096;22770;-79
2021/08/12 07:58:53;;;;;;;7.03;1.60;;;;;;;19.99;65.87;100970.14;125735;1096;22800;-79
2021/08/12 08:01:24;;;;;;;6.03;1.47;;;;;;;20.06;65.69;100969.58;125762;1096;22791;-79
2021/08/12 08:03:56;;;;;;;8.93;1.70;;;;;;;20.18;65.76;100968.19;125621;1096;22873;-80
2021/08/12 08:06:27;;;;;;;7.50;1.25;;;;;;;20.27;64.49;100972.78;125756;1096;26009;-80
2021/08/12 08:08:58;;;;;;;10.83;1.57;;;;;;;20.35;64.06;100968.06;125692;1096;22786;-79
2021/08/12 08:11:31;;;;;;;4.40;1.20;;;;;;;20.39;63.75;100971.38;125681;1096;25880;-79
2021/08/12 08:14:03;;;;;;;6.53;1.23;;;;;;;20.49;63.63;100975.41;125712;1096;25931;-78
2021/08/12 08:16:34;;;;;;;4.35;1.20;;;;;;;20.62;63.06;100972.70;125753;1096;22999;-79
2021/08/12 08:19:06;;;;;;;7.50;1.38;;;;;;;20.72;62.53;100974.66;125831;1096;25964;-82
2021/08/12 08:21:39;;;;;;;5.70;1.20;;;;;;;20.80;62.34;100974.82;125669;1096;22869;-79
2021/08/12 08:24:11;;;;;;;3.50;1.10;;;;;;;20.88;61.77;100973.70;125917;1096;22839;-79
2021/08/12 08:26:43;;;;;;;6.88;1.50;;;;;;;20.95;61.03;100975.95;125684;1096;22773;-79
2021/08/12 08:29:17;;;;;;;6.10;1.60;;;;;;;21.01;61.42;100978.71;125609;1096;22895;-79
2021/08/12 08:31:49;;;;;;;6.30;1.23;;;;;;;21.11;59.63;100979.91;125688;1097;26277;-79
2021/08/12 08:34:20;;;;;;;4.83;1.40;;;;;;;21.18;60.65;100978.54;125725;1096;22806;-79
2021/08/12 08:36:52;;;;;;;5.68;1.25;;;;;;;21.24;59.86;100985.69;125667;1096;25884;-82
2021/08/12 08:39:23;;;;;;;8.30;1.50;;;;;;;21.30;59.09;100986.38;125807;1096;26303;-79
2021/08/12 08:41:56;;;;;;;6.48;1.40;;;;;;;21.33;58.24;100985.30;125712;1096;25877;-79
2021/08/12 08:44:29;;;;;;;8.55;1.30;;;;;;;21.40;58.99;100990.38;125764;1096;27317;-78
2021/08/12 08:47:01;;;;;;;5.70;1.30;;;;;;;21.43;57.76;100983.64;125768;1095;23357;-79
2021/08/12 08:49:33;;;;;;;6.05;1.08;;;;;;;21.50;58.04;100988.69;125761;1096;23696;-81
2021/08/12 08:52:07;;;;;;;4.38;1.20;;;;;;;21.58;58.09;100988.86;125769;1096;24448;-79
2021/08/12 08:54:41;;;;;;;9.35;1.50;;;;;;;21.65;57.14;100985.38;125652;1096;22858;-79
2021/08/12 08:57:13;;;;;;;7.70;1.40;;;;;;;21.67;55.94;100982.77;125663;1096;22813;-79
2021/08/12 08:59:44;;;;;;;5.05;1.03;;;;;;;21.66;56.10;100975.56;125664;1096;22854;-79
2021/08/12 09:02:16;;;;;;;7.63;1.50;;;;;;;21.66;56.09;100979.16;125656;1095;26559;-79
2021/08/12 09:04:48;;;;;;;4.70;1.43;;;;;;;21.68;55.23;100981.48;125721;1096;27690;-79
2021/08/12 09:07:20;;;;;;;7.88;1.33;;;;;;;21.69;55.34;100975.25;125762;1096;22810;-79
2021/08/12 09:09:51;;;;;;;6.15;1.50;;;;;;;21.79;55.42;100980.55;125613;1096;23568;-79
2021/08/12 09:12:23;;;;;;;7.20;1.73;;;;;;;21.92;55.64;100974.92;125678;1096;22800;-79
2021/08/12 09:15:03;;;;;;;6.70;1.60;;;;;;;21.99;55.71;100977.16;125662;1096;27650;-79
2021/08/12 09:17:37;;;;;;;8.93;1.88;;;;;;;22.09;54.46;100976.20;125731;1096;23772;-80
2021/08/12 09:20:13;;;;;;;7.60;1.78;;;;;;;22.20;53.55;100972.41;125625;1096;22800;-79
2021/08/12 09:22:58;;;;;;;5.10;1.55;;;;;;;22.19;53.52;100968.02;125819;1096;22868;-79
2021/08/12 09:25:42;;;;;;;5.18;1.55;;;;;;;22.21;53.67;100977.55;125841;1096;23392;-80
2021/08/12 09:28:16;;;;;;;5.58;1.58;;;;;;;22.30;54.16;100967.84;125674;1096;23370;-79
2021/08/12 09:31:05;;;;;;;5.15;1.38;;;;;;;22.37;53.40;100962.27;125719;1096;23386;-79
2021/08/12 09:33:42;;;;;;;10.23;1.40;;;;;;;22.42;52.20;100961.41;125640;1096;24941;-79
2021/08/12 09:36:34;;;;;;;6.03;1.40;;;;;;;22.41;52.89;100962.71;125702;1096;22877;-79
2021/08/12 09:39:11;;;;;;;10.10;1.48;;;;;;;22.48;52.76;100964.92;125722;1095;26261;-79
2021/08/12 09:41:45;;;;;;;6.53;1.38;;;;;;;22.51;51.78;100949.59;125774;1096;22890;-80
2021/08/12 09:44:38;;;;;;;4.30;1.25;;;;;;;22.52;50.72;100958.90;125633;1097;26586;-81
2021/08/12 09:47:12;;;;;;;8.03;1.30;;;;;;;22.55;50.78;100964.26;125871;1096;25883;-79
2021/08/12 09:49:49;;;;;;;7.05;1.30;;;;;;;22.55;49.52;100964.26;125782;1095;27654;-79
2021/08/12 09:52:29;;;;;;;10.38;1.30;;;;;;;22.50;49.88;100961.52;125871;1096;25919;-80
2021/08/12 09:55:21;;;;;;;6.00;1.28;;;;;;;22.50;49.46;100972.91;125780;1095;22911;-80
2021/08/12 09:57:54;;;;;;;6.55;1.50;;;;;;;22.49;50.23;100974.23;125664;1096;26570;-79
2021/08/12 10:00:38;;;;;;;7.98;1.70;;;;;;;22.52;50.20;100964.59;125648;1095;22761;-80
2021/08/12 10:03:25;;;;;;;8.08;1.40;;;;;;;22.55;50.00;100969.20;125752;1096;22807;-79
2021/08/12 10:05:58;;;;;;;5.48;1.20;;;;;;;22.58;49.44;100956.74;125781;1097;24456;-79
2021/08/12 10:08:32;;;;;;;6.40;1.53;;;;;;;22.62;49.54;100956.41;125702;1096;24184;-78
2021/08/12 10:11:26;;;;;;;3.97;1.30;;;;;;;22.67;49.61;100959.17;125746;1096;22765;-79
2021/08/12 10:13:59;;;;;;;6.88;1.28;;;;;;;22.79;48.72;100951.17;125661;1096;24454;-79
2021/08/12 10:16:33;;;;;;;7.05;1.50;;;;;;;22.86;48.92;100954.14;125787;1096;23408;-81
2021/08/12 10:19:11;;;;;;;5.20;1.30;;;;;;;22.95;49.20;100961.45;125760;1096;26311;-82
2021/08/12 10:21:43;;;;;;;7.30;1.30;;;;;;;23.02;47.87;100958.73;125681;1096;26479;-78
2021/08/12 10:24:15;;;;;;;5.03;1.17;;;;;;;23.09;48.29;100951.61;125776;1096;25890;-79
2021/08/12 10:26:52;;;;;;;6.20;1.45;;;;;;;23.14;48.22;100954.33;125772;1097;22816;-79
2021/08/12 10:29:25;;;;;;;5.98;1.28;;;;;;;23.22;46.72;100960.11;125800;1095;27879;-79
2021/08/12 10:31:57;;;;;;;3.63;1.18;;;;;;;23.21;46.34;100952.90;125860;1096;27233;-79
2021/08/12 10:34:30;;;;;;;4.98;0.95;;;;;;;23.19;46.15;100953.45;125765;1095;22816;-79
2021/08/12 10:37:02;;;;;;;6.55;1.40;;;;;;;23.18;46.40;100949.06;125720;1096;23532;-79
2021/08/12 10:39:34;;;;;;;7.15;1.43;;;;;;;23.16;45.99;100939.53;125794;1096;27347;-80
2021/08/12 10:42:07;;;;;;;4.53;1.20;;;;;;;23.15;46.14;100944.45;125680;1096;22945;-79
2021/08/12 10:44:40;;;;;;;3.17;1.10;;;;;;;23.16;46.52;100936.68;125788;1096;22856;-81
2021/08/12 10:50:36;;;;;;;5.18;1.28;;;;;;;23.01;45.28;100940.09;126515;1093;23112;-81
2021/08/12 10:53:20;;;;;;;5.33;1.20;;;;;;;23.00;45.44;100934.95;126225;1093;26000;-77
2021/08/12 10:56:04;;;;;;;3.73;1.18;;;;;;;23.08;46.39;100942.28;126256;1093;27214;-77
2021/08/12 10:58:46;;;;;;;6.70;1.20;;;;;;;23.13;46.05;100938.54;126728;1092;26576;-78
2021/08/12 11:01:34;;;;;;;6.07;0.93;;;;;;;23.13;46.38;100935.69;126219;1093;23552;-78
2021/08/12 11:04:09;;;;;;;7.05;1.50;;;;;;;23.20;46.28;100939.95;126406;1093;26367;-81
2021/08/12 11:06:51;;;;;;;5.95;1.10;;;;;;;23.27;45.91;100936.45;126272;1093;22935;-78
2021/08/12 11:09:26;;;;;;;7.75;1.20;;;;;;;23.36;46.15;100936.00;126230;1092;22778;-81
2021/08/12 11:12:04;;;;;;;4.73;1.10;;;;;;;23.48;45.99;100940.16;126328;1093;26220;-77
2021/08/12 11:14:52;;;;;;;3.77;1.07;;;;;;;23.60;46.33;100943.50;126317;1093;25896;-78
2021/08/12 11:17:24;;;;;;;3.27;1.00;;;;;;;23.68;44.71;100944.34;126417;1093;22800;-78
2021/08/12 11:19:57;;;;;;;5.08;1.20;;;;;;;23.75;45.25;100944.44;126409;1093;25954;-78
2021/08/12 11:22:38;;;;;;;4.45;1.20;;;;;;;23.85;45.08;100942.64;126346;1093;24500;-77
2021/08/12 11:25:11;;;;;;;4.90;1.33;;;;;;;23.95;44.69;100940.06;126241;1093;25980;-79
2021/08/12 11:27:46;;;;;;;4.33;1.00;;;;;;;24.11;45.36;100944.61;126337;1091;22864;-78
2021/08/12 11:30:49;;;;;;;7.47;2.17;;;;;;;24.20;44.70;100935.56;126298;1093;22854;-78
2021/08/12 11:33:43;;;;;;;4.87;1.13;;;;;;;24.28;43.53;100930.69;126465;1093;22818;-79
2021/08/12 11:36:22;;;;;;;6.20;1.28;;;;;;;24.23;44.05;100928.73;126495;1093;27361;-77
2021/08/12 11:38:59;;;;;;;5.28;1.10;;;;;;;24.25;44.35;100926.08;126475;1093;24432;-78
2021/08/12 11:41:39;;;;;;;3.78;1.10;;;;;;;24.30;43.85;100936.59;126554;1092;22794;-77
2021/08/12 11:44:13;;;;;;;4.20;1.30;;;;;;;24.28;43.10;100927.06;126598;1093;22803;-78
2021/08/12 11:46:46;;;;;;;6.38;1.00;;;;;;;24.27;43.01;100931.25;126552;1092;26366;-78
2021/08/12 11:49:20;;;;;;;5.20;0.95;;;;;;;24.28;43.67;100924.98;126544;1093;25286;-79